sensor_id;sensor_type;location;lat;lon;timestamp;P1;durP1;ratioP1;P2;durP2;ratioP2
78873;SDS011;68250;43.514;1.494;2023-08-17T00:01:39;6.82;;;5.25;;
78873;SDS011;68250;43.514;1.494;2023-08-17T00:04:05;7.57;;;5.40;;
78873;SDS011;68250;43.514;1.494;2023-08-17T00:06:31;8.55;;;5.63;;
78873;SDS011;68250;43.514;1.494;2023-08-17T00:08:56;7.80;;;5.00;;
78873;SDS011;68250;43.514;1.494;2023-08-17T00:11:22;7.35;;;4.93;;
78873;SDS011;68250;43.514;1.494;2023-08-17T00:13:48;7.23;;;4.90;;
78873;SDS011;68250;43.514;1.494;2023-08-17T00:16:14;8.65;;;5.07;;
78873;SDS011;68250;43.514;1.494;2023-08-17T00:18:39;6.67;;;5.10;;
78873;SDS011;68250;43.514;1.494;2023-08-17T00:21:05;8.45;;;5.30;;
78873;SDS011;68250;43.514;1.494;2023-08-17T00:23:31;8.80;;;4.90;;
78873;SDS011;68250;43.514;1.494;2023-08-17T00:25:56;8.52;;;5.13;;
78873;SDS011;68250;43.514;1.494;2023-08-17T00:28:22;7.00;;;4.87;;
78873;SDS011;68250;43.514;1.494;2023-08-17T00:30:47;7.53;;;5.13;;
78873;SDS011;68250;43.514;1.494;2023-08-17T00:33:13;7.07;;;4.75;;
78873;SDS011;68250;43.514;1.494;2023-08-17T00:35:39;8.27;;;5.23;;
78873;SDS011;68250;43.514;1.494;2023-08-17T00:38:04;8.50;;;5.00;;
78873;SDS011;68250;43.514;1.494;2023-08-17T00:40:30;8.57;;;5.10;;
78873;SDS011;68250;43.514;1.494;2023-08-17T00:42:55;7.67;;;4.60;;
78873;SDS011;68250;43.514;1.494;2023-08-17T00:45:21;8.38;;;4.57;;
78873;SDS011;68250;43.514;1.494;2023-08-17T00:47:47;6.35;;;4.60;;
78873;SDS011;68250;43.514;1.494;2023-08-17T00:50:13;6.63;;;4.43;;
78873;SDS011;68250;43.514;1.494;2023-08-17T00:52:39;7.57;;;4.65;;
78873;SDS011;68250;43.514;1.494;2023-08-17T00:55:06;6.28;;;4.45;;
78873;SDS011;68250;43.514;1.494;2023-08-17T00:57:34;8.20;;;4.45;;
78873;SDS011;68250;43.514;1.494;2023-08-17T01:00:00;8.52;;;4.95;;
78873;SDS011;68250;43.514;1.494;2023-08-17T01:02:26;6.07;;;4.53;;
78873;SDS011;68250;43.514;1.494;2023-08-17T01:04:52;8.85;;;4.53;;
78873;SDS011;68250;43.514;1.494;2023-08-17T01:07:18;8.98;;;5.07;;
78873;SDS011;68250;43.514;1.494;2023-08-17T01:09:43;7.80;;;4.63;;
78873;SDS011;68250;43.514;1.494;2023-08-17T01:12:31;6.80;;;4.27;;
78873;SDS011;68250;43.514;1.494;2023-08-17T01:17:27;6.43;;;4.80;;
78873;SDS011;68250;43.514;1.494;2023-08-17T01:19:56;9.80;;;5.45;;
78873;SDS011;68250;43.514;1.494;2023-08-17T01:22:23;7.65;;;4.63;;
78873;SDS011;68250;43.514;1.494;2023-08-17T01:24:49;9.30;;;4.67;;
78873;SDS011;68250;43.514;1.494;2023-08-17T01:27:22;6.20;;;4.90;;
78873;SDS011;68250;43.514;1.494;2023-08-17T01:29:48;8.10;;;4.97;;
78873;SDS011;68250;43.514;1.494;2023-08-17T01:32:37;9.13;;;4.63;;
78873;SDS011;68250;43.514;1.494;2023-08-17T01:35:09;6.83;;;5.00;;
78873;SDS011;68250;43.514;1.494;2023-08-17T01:37:40;6.97;;;5.00;;
78873;SDS011;68250;43.514;1.494;2023-08-17T01:40:07;6.65;;;4.90;;
78873;SDS011;68250;43.514;1.494;2023-08-17T01:42:34;6.70;;;4.78;;
78873;SDS011;68250;43.514;1.494;2023-08-17T01:45:00;6.68;;;4.78;;
78873;SDS011;68250;43.514;1.494;2023-08-17T01:47:26;6.97;;;4.60;;
78873;SDS011;68250;43.514;1.494;2023-08-17T01:49:52;8.27;;;4.93;;
78873;SDS011;68250;43.514;1.494;2023-08-17T01:52:19;6.73;;;4.83;;
78873;SDS011;68250;43.514;1.494;2023-08-17T01:54:44;7.40;;;4.80;;
78873;SDS011;68250;43.514;1.494;2023-08-17T01:57:10;6.23;;;4.70;;
78873;SDS011;68250;43.514;1.494;2023-08-17T01:59:35;8.07;;;5.15;;
78873;SDS011;68250;43.514;1.494;2023-08-17T02:02:01;6.50;;;4.60;;
78873;SDS011;68250;43.514;1.494;2023-08-17T02:04:27;8.27;;;5.17;;
78873;SDS011;68250;43.514;1.494;2023-08-17T02:06:52;10.07;;;4.70;;
78873;SDS011;68250;43.514;1.494;2023-08-17T02:09:18;7.57;;;4.77;;
78873;SDS011;68250;43.514;1.494;2023-08-17T02:11:43;7.35;;;5.38;;
78873;SDS011;68250;43.514;1.494;2023-08-17T02:14:09;7.30;;;4.87;;
78873;SDS011;68250;43.514;1.494;2023-08-17T02:16:34;6.87;;;4.70;;
78873;SDS011;68250;43.514;1.494;2023-08-17T02:19:00;7.47;;;5.22;;
78873;SDS011;68250;43.514;1.494;2023-08-17T02:21:26;8.43;;;4.88;;
78873;SDS011;68250;43.514;1.494;2023-08-17T02:23:51;7.20;;;5.00;;
78873;SDS011;68250;43.514;1.494;2023-08-17T02:26:17;6.70;;;5.50;;
78873;SDS011;68250;43.514;1.494;2023-08-17T02:28:43;7.57;;;4.70;;
78873;SDS011;68250;43.514;1.494;2023-08-17T02:31:08;6.10;;;5.27;;
78873;SDS011;68250;43.514;1.494;2023-08-17T02:33:34;8.77;;;5.38;;
78873;SDS011;68250;43.514;1.494;2023-08-17T02:36:02;7.93;;;4.93;;
78873;SDS011;68250;43.514;1.494;2023-08-17T02:38:27;6.78;;;5.05;;
78873;SDS011;68250;43.514;1.494;2023-08-17T02:40:53;7.03;;;4.83;;
78873;SDS011;68250;43.514;1.494;2023-08-17T02:43:18;8.23;;;5.07;;
78873;SDS011;68250;43.514;1.494;2023-08-17T02:45:44;7.30;;;4.77;;
78873;SDS011;68250;43.514;1.494;2023-08-17T02:48:09;8.90;;;5.30;;
78873;SDS011;68250;43.514;1.494;2023-08-17T02:50:35;7.20;;;4.73;;
78873;SDS011;68250;43.514;1.494;2023-08-17T02:53:01;7.60;;;5.40;;
78873;SDS011;68250;43.514;1.494;2023-08-17T02:55:27;7.47;;;5.15;;
78873;SDS011;68250;43.514;1.494;2023-08-17T02:57:53;8.20;;;5.23;;
78873;SDS011;68250;43.514;1.494;2023-08-17T03:00:18;8.33;;;5.57;;
78873;SDS011;68250;43.514;1.494;2023-08-17T03:02:44;7.93;;;5.87;;
78873;SDS011;68250;43.514;1.494;2023-08-17T03:05:09;8.32;;;5.25;;
78873;SDS011;68250;43.514;1.494;2023-08-17T03:07:35;8.07;;;5.30;;
78873;SDS011;68250;43.514;1.494;2023-08-17T03:10:00;8.53;;;5.17;;
78873;SDS011;68250;43.514;1.494;2023-08-17T03:12:26;9.60;;;5.00;;
78873;SDS011;68250;43.514;1.494;2023-08-17T03:14:52;8.20;;;5.10;;
78873;SDS011;68250;43.514;1.494;2023-08-17T03:17:17;8.05;;;5.53;;
78873;SDS011;68250;43.514;1.494;2023-08-17T03:19:43;7.80;;;5.40;;
78873;SDS011;68250;43.514;1.494;2023-08-17T03:22:08;9.57;;;5.67;;
78873;SDS011;68250;43.514;1.494;2023-08-17T03:24:34;9.40;;;5.87;;
78873;SDS011;68250;43.514;1.494;2023-08-17T03:26:59;9.30;;;5.60;;
78873;SDS011;68250;43.514;1.494;2023-08-17T03:29:25;9.27;;;6.13;;
78873;SDS011;68250;43.514;1.494;2023-08-17T03:31:52;8.10;;;6.30;;
78873;SDS011;68250;43.514;1.494;2023-08-17T03:34:17;9.80;;;5.93;;
78873;SDS011;68250;43.514;1.494;2023-08-17T03:36:43;8.00;;;5.67;;
78873;SDS011;68250;43.514;1.494;2023-08-17T03:39:08;9.52;;;6.00;;
78873;SDS011;68250;43.514;1.494;2023-08-17T03:41:35;8.70;;;5.68;;
78873;SDS011;68250;43.514;1.494;2023-08-17T03:44:02;7.87;;;5.73;;
78873;SDS011;68250;43.514;1.494;2023-08-17T03:46:30;7.45;;;6.15;;
78873;SDS011;68250;43.514;1.494;2023-08-17T03:48:56;10.77;;;6.30;;
78873;SDS011;68250;43.514;1.494;2023-08-17T03:51:22;11.90;;;5.83;;
78873;SDS011;68250;43.514;1.494;2023-08-17T03:53:47;8.50;;;6.37;;
78873;SDS011;68250;43.514;1.494;2023-08-17T03:56:13;7.63;;;6.30;;
78873;SDS011;68250;43.514;1.494;2023-08-17T03:58:38;9.93;;;6.20;;
78873;SDS011;68250;43.514;1.494;2023-08-17T04:01:04;8.55;;;6.03;;
78873;SDS011;68250;43.514;1.494;2023-08-17T04:03:31;9.97;;;6.57;;
78873;SDS011;68250;43.514;1.494;2023-08-17T04:05:57;8.35;;;6.22;;
78873;SDS011;68250;43.514;1.494;2023-08-17T04:08:22;8.10;;;6.13;;
78873;SDS011;68250;43.514;1.494;2023-08-17T04:10:48;8.45;;;6.03;;
78873;SDS011;68250;43.514;1.494;2023-08-17T04:13:14;9.33;;;6.03;;
78873;SDS011;68250;43.514;1.494;2023-08-17T04:15:39;7.57;;;6.43;;
78873;SDS011;68250;43.514;1.494;2023-08-17T04:18:05;8.02;;;5.93;;
78873;SDS011;68250;43.514;1.494;2023-08-17T04:20:30;9.63;;;6.30;;
78873;SDS011;68250;43.514;1.494;2023-08-17T04:22:56;9.45;;;6.50;;
78873;SDS011;68250;43.514;1.494;2023-08-17T04:25:22;8.33;;;6.03;;
78873;SDS011;68250;43.514;1.494;2023-08-17T04:27:47;9.40;;;6.13;;
78873;SDS011;68250;43.514;1.494;2023-08-17T04:30:13;9.25;;;6.63;;
78873;SDS011;68250;43.514;1.494;2023-08-17T04:32:38;10.13;;;6.13;;
78873;SDS011;68250;43.514;1.494;2023-08-17T04:35:04;9.02;;;6.72;;
78873;SDS011;68250;43.514;1.494;2023-08-17T04:37:30;10.40;;;6.75;;
78873;SDS011;68250;43.514;1.494;2023-08-17T04:39:56;8.53;;;6.17;;
78873;SDS011;68250;43.514;1.494;2023-08-17T04:42:21;7.63;;;6.07;;
78873;SDS011;68250;43.514;1.494;2023-08-17T04:44:47;8.35;;;6.00;;
78873;SDS011;68250;43.514;1.494;2023-08-17T04:47:13;8.13;;;6.50;;
78873;SDS011;68250;43.514;1.494;2023-08-17T04:49:39;8.77;;;6.32;;
78873;SDS011;68250;43.514;1.494;2023-08-17T04:52:04;9.03;;;6.67;;
78873;SDS011;68250;43.514;1.494;2023-08-17T04:54:30;8.10;;;6.53;;
78873;SDS011;68250;43.514;1.494;2023-08-17T04:56:56;10.70;;;6.80;;
78873;SDS011;68250;43.514;1.494;2023-08-17T04:59:21;9.50;;;6.43;;
78873;SDS011;68250;43.514;1.494;2023-08-17T05:01:47;8.50;;;6.47;;
78873;SDS011;68250;43.514;1.494;2023-08-17T05:04:12;10.00;;;6.43;;
78873;SDS011;68250;43.514;1.494;2023-08-17T05:06:38;9.03;;;6.90;;
78873;SDS011;68250;43.514;1.494;2023-08-17T05:09:04;8.27;;;6.60;;
78873;SDS011;68250;43.514;1.494;2023-08-17T05:11:30;8.55;;;7.00;;
78873;SDS011;68250;43.514;1.494;2023-08-17T05:13:56;9.25;;;7.07;;
78873;SDS011;68250;43.514;1.494;2023-08-17T05:16:22;11.43;;;7.07;;
78873;SDS011;68250;43.514;1.494;2023-08-17T05:18:47;11.03;;;7.20;;
78873;SDS011;68250;43.514;1.494;2023-08-17T05:21:13;12.57;;;6.97;;
78873;SDS011;68250;43.514;1.494;2023-08-17T05:23:38;8.65;;;6.28;;
78873;SDS011;68250;43.514;1.494;2023-08-17T05:26:04;10.00;;;7.57;;
78873;SDS011;68250;43.514;1.494;2023-08-17T05:28:30;11.50;;;7.30;;
78873;SDS011;68250;43.514;1.494;2023-08-17T05:30:55;9.47;;;7.07;;
78873;SDS011;68250;43.514;1.494;2023-08-17T05:33:21;10.95;;;7.20;;
78873;SDS011;68250;43.514;1.494;2023-08-17T05:35:52;11.20;;;6.80;;
78873;SDS011;68250;43.514;1.494;2023-08-17T05:38:19;9.77;;;6.82;;
78873;SDS011;68250;43.514;1.494;2023-08-17T05:40:44;7.93;;;6.07;;
78873;SDS011;68250;43.514;1.494;2023-08-17T05:43:10;10.97;;;6.77;;
78873;SDS011;68250;43.514;1.494;2023-08-17T05:45:36;11.40;;;6.47;;
78873;SDS011;68250;43.514;1.494;2023-08-17T05:48:02;10.43;;;6.13;;
78873;SDS011;68250;43.514;1.494;2023-08-17T05:50:27;12.75;;;6.53;;
78873;SDS011;68250;43.514;1.494;2023-08-17T05:52:54;11.02;;;7.00;;
78873;SDS011;68250;43.514;1.494;2023-08-17T05:55:20;11.23;;;7.03;;
78873;SDS011;68250;43.514;1.494;2023-08-17T05:57:45;10.30;;;6.07;;
78873;SDS011;68250;43.514;1.494;2023-08-17T06:00:11;9.53;;;6.83;;
78873;SDS011;68250;43.514;1.494;2023-08-17T06:02:38;10.65;;;6.75;;
78873;SDS011;68250;43.514;1.494;2023-08-17T06:05:04;8.80;;;6.25;;
78873;SDS011;68250;43.514;1.494;2023-08-17T06:07:30;8.23;;;6.30;;
78873;SDS011;68250;43.514;1.494;2023-08-17T06:09:55;9.33;;;6.13;;
78873;SDS011;68250;43.514;1.494;2023-08-17T06:12:21;9.50;;;6.13;;
78873;SDS011;68250;43.514;1.494;2023-08-17T06:14:47;11.85;;;6.57;;
78873;SDS011;68250;43.514;1.494;2023-08-17T06:17:12;7.80;;;5.80;;
78873;SDS011;68250;43.514;1.494;2023-08-17T06:19:38;8.18;;;5.70;;
78873;SDS011;68250;43.514;1.494;2023-08-17T06:22:05;10.83;;;6.33;;
78873;SDS011;68250;43.514;1.494;2023-08-17T06:24:30;8.43;;;6.25;;
78873;SDS011;68250;43.514;1.494;2023-08-17T06:26:56;9.37;;;6.03;;
78873;SDS011;68250;43.514;1.494;2023-08-17T06:29:21;11.65;;;6.68;;
78873;SDS011;68250;43.514;1.494;2023-08-17T06:31:47;9.37;;;6.97;;
78873;SDS011;68250;43.514;1.494;2023-08-17T06:34:13;10.25;;;6.70;;
78873;SDS011;68250;43.514;1.494;2023-08-17T06:36:38;8.43;;;6.10;;
78873;SDS011;68250;43.514;1.494;2023-08-17T06:39:04;9.43;;;6.55;;
78873;SDS011;68250;43.514;1.494;2023-08-17T06:41:30;16.00;;;6.67;;
78873;SDS011;68250;43.514;1.494;2023-08-17T06:43:56;9.68;;;6.45;;
78873;SDS011;68250;43.514;1.494;2023-08-17T06:46:21;10.33;;;6.57;;
78873;SDS011;68250;43.514;1.494;2023-08-17T06:48:47;7.83;;;6.27;;
78873;SDS011;68250;43.514;1.494;2023-08-17T06:51:12;8.85;;;6.53;;
78873;SDS011;68250;43.514;1.494;2023-08-17T06:53:38;8.67;;;6.60;;
78873;SDS011;68250;43.514;1.494;2023-08-17T06:56:03;10.48;;;6.45;;
78873;SDS011;68250;43.514;1.494;2023-08-17T06:58:29;9.00;;;6.10;;
78873;SDS011;68250;43.514;1.494;2023-08-17T07:00:55;10.90;;;6.60;;
78873;SDS011;68250;43.514;1.494;2023-08-17T07:03:20;8.80;;;6.27;;
78873;SDS011;68250;43.514;1.494;2023-08-17T07:05:46;9.55;;;6.25;;
78873;SDS011;68250;43.514;1.494;2023-08-17T07:08:12;9.23;;;6.50;;
78873;SDS011;68250;43.514;1.494;2023-08-17T07:10:38;9.43;;;6.65;;
78873;SDS011;68250;43.514;1.494;2023-08-17T07:13:04;10.57;;;6.23;;
78873;SDS011;68250;43.514;1.494;2023-08-17T07:15:30;9.30;;;5.90;;
78873;SDS011;68250;43.514;1.494;2023-08-17T07:17:56;11.18;;;6.65;;
78873;SDS011;68250;43.514;1.494;2023-08-17T07:20:21;9.33;;;6.37;;
78873;SDS011;68250;43.514;1.494;2023-08-17T07:22:47;9.00;;;6.68;;
78873;SDS011;68250;43.514;1.494;2023-08-17T07:25:13;9.20;;;6.60;;
78873;SDS011;68250;43.514;1.494;2023-08-17T07:27:38;9.20;;;6.90;;
78873;SDS011;68250;43.514;1.494;2023-08-17T07:30:04;10.40;;;6.40;;
78873;SDS011;68250;43.514;1.494;2023-08-17T07:32:30;8.60;;;5.85;;
78873;SDS011;68250;43.514;1.494;2023-08-17T07:34:56;9.68;;;6.32;;
78873;SDS011;68250;43.514;1.494;2023-08-17T07:37:22;8.57;;;6.20;;
78873;SDS011;68250;43.514;1.494;2023-08-17T07:39:47;9.93;;;6.53;;
78873;SDS011;68250;43.514;1.494;2023-08-17T07:42:13;11.77;;;6.73;;
78873;SDS011;68250;43.514;1.494;2023-08-17T07:44:38;8.97;;;6.27;;
78873;SDS011;68250;43.514;1.494;2023-08-17T07:47:05;11.07;;;6.18;;
78873;SDS011;68250;43.514;1.494;2023-08-17T07:49:31;11.48;;;6.60;;
78873;SDS011;68250;43.514;1.494;2023-08-17T07:51:56;13.13;;;6.53;;
78873;SDS011;68250;43.514;1.494;2023-08-17T07:54:22;8.00;;;5.93;;
78873;SDS011;68250;43.514;1.494;2023-08-17T07:56:48;8.57;;;5.80;;
78873;SDS011;68250;43.514;1.494;2023-08-17T07:59:13;9.90;;;5.70;;
78873;SDS011;68250;43.514;1.494;2023-08-17T08:01:39;8.53;;;6.03;;
78873;SDS011;68250;43.514;1.494;2023-08-17T08:04:05;9.07;;;5.63;;
78873;SDS011;68250;43.514;1.494;2023-08-17T08:06:31;8.68;;;6.00;;
78873;SDS011;68250;43.514;1.494;2023-08-17T08:08:57;8.53;;;5.73;;
78873;SDS011;68250;43.514;1.494;2023-08-17T08:11:23;8.98;;;5.88;;
78873;SDS011;68250;43.514;1.494;2023-08-17T08:13:48;10.03;;;5.90;;
78873;SDS011;68250;43.514;1.494;2023-08-17T08:16:14;8.53;;;5.80;;
78873;SDS011;68250;43.514;1.494;2023-08-17T08:18:40;8.45;;;5.60;;
78873;SDS011;68250;43.514;1.494;2023-08-17T08:21:05;9.63;;;5.53;;
78873;SDS011;68250;43.514;1.494;2023-08-17T08:23:31;7.60;;;5.35;;
78873;SDS011;68250;43.514;1.494;2023-08-17T08:25:56;10.33;;;4.90;;
78873;SDS011;68250;43.514;1.494;2023-08-17T08:28:23;7.80;;;4.85;;
78873;SDS011;68250;43.514;1.494;2023-08-17T08:30:50;7.72;;;4.90;;
78873;SDS011;68250;43.514;1.494;2023-08-17T08:33:15;8.00;;;5.47;;
78873;SDS011;68250;43.514;1.494;2023-08-17T08:35:41;8.33;;;5.10;;
78873;SDS011;68250;43.514;1.494;2023-08-17T08:38:06;7.40;;;5.20;;
78873;SDS011;68250;43.514;1.494;2023-08-17T08:40:32;6.63;;;5.33;;
78873;SDS011;68250;43.514;1.494;2023-08-17T08:42:58;9.00;;;5.53;;
78873;SDS011;68250;43.514;1.494;2023-08-17T08:45:24;8.15;;;4.93;;
78873;SDS011;68250;43.514;1.494;2023-08-17T08:47:52;7.50;;;4.87;;
78873;SDS011;68250;43.514;1.494;2023-08-17T08:50:19;9.20;;;5.20;;
78873;SDS011;68250;43.514;1.494;2023-08-17T08:52:53;9.02;;;5.35;;
78873;SDS011;68250;43.514;1.494;2023-08-17T08:55:23;10.82;;;5.28;;
78873;SDS011;68250;43.514;1.494;2023-08-17T08:57:49;8.63;;;4.85;;
78873;SDS011;68250;43.514;1.494;2023-08-17T09:00:15;8.53;;;4.47;;
78873;SDS011;68250;43.514;1.494;2023-08-17T09:02:42;8.30;;;4.50;;
78873;SDS011;68250;43.514;1.494;2023-08-17T09:05:09;6.53;;;4.50;;
78873;SDS011;68250;43.514;1.494;2023-08-17T09:07:35;7.13;;;4.43;;
78873;SDS011;68250;43.514;1.494;2023-08-17T09:10:03;7.00;;;4.20;;
78873;SDS011;68250;43.514;1.494;2023-08-17T09:12:29;9.25;;;4.53;;
78873;SDS011;68250;43.514;1.494;2023-08-17T09:14:55;7.90;;;4.65;;
78873;SDS011;68250;43.514;1.494;2023-08-17T09:17:24;10.77;;;4.57;;
78873;SDS011;68250;43.514;1.494;2023-08-17T09:19:50;7.07;;;4.67;;
78873;SDS011;68250;43.514;1.494;2023-08-17T09:22:26;8.35;;;4.25;;
78873;SDS011;68250;43.514;1.494;2023-08-17T09:25:11;7.13;;;3.72;;
78873;SDS011;68250;43.514;1.494;2023-08-17T09:27:47;6.20;;;4.10;;
78873;SDS011;68250;43.514;1.494;2023-08-17T09:30:12;9.77;;;4.10;;
78873;SDS011;68250;43.514;1.494;2023-08-17T09:32:38;7.87;;;3.47;;
78873;SDS011;68250;43.514;1.494;2023-08-17T09:35:04;7.35;;;3.80;;
78873;SDS011;68250;43.514;1.494;2023-08-17T09:37:34;5.57;;;3.70;;
78873;SDS011;68250;43.514;1.494;2023-08-17T09:40:00;6.80;;;3.63;;
78873;SDS011;68250;43.514;1.494;2023-08-17T09:42:26;7.00;;;4.03;;
78873;SDS011;68250;43.514;1.494;2023-08-17T09:44:53;7.18;;;3.50;;
78873;SDS011;68250;43.514;1.494;2023-08-17T09:47:19;5.45;;;3.35;;
78873;SDS011;68250;43.514;1.494;2023-08-17T09:49:49;6.50;;;3.90;;
78873;SDS011;68250;43.514;1.494;2023-08-17T09:52:17;8.23;;;3.80;;
78873;SDS011;68250;43.514;1.494;2023-08-17T09:54:43;6.82;;;3.50;;
78873;SDS011;68250;43.514;1.494;2023-08-17T09:57:11;7.05;;;3.40;;
78873;SDS011;68250;43.514;1.494;2023-08-17T09:59:37;5.38;;;3.03;;
78873;SDS011;68250;43.514;1.494;2023-08-17T10:02:03;5.37;;;3.47;;
78873;SDS011;68250;43.514;1.494;2023-08-17T10:04:29;5.50;;;3.70;;
78873;SDS011;68250;43.514;1.494;2023-08-17T10:06:58;6.33;;;3.43;;
78873;SDS011;68250;43.514;1.494;2023-08-17T10:09:27;7.47;;;3.70;;
78873;SDS011;68250;43.514;1.494;2023-08-17T10:11:57;8.20;;;3.60;;
78873;SDS011;68250;43.514;1.494;2023-08-17T10:14:28;8.48;;;3.40;;
78873;SDS011;68250;43.514;1.494;2023-08-17T10:17:03;6.90;;;3.70;;
78873;SDS011;68250;43.514;1.494;2023-08-17T10:22:11;8.40;;;4.00;;
78873;SDS011;68250;43.514;1.494;2023-08-17T10:24:42;5.95;;;4.30;;
78873;SDS011;68250;43.514;1.494;2023-08-17T10:27:08;5.63;;;3.80;;
78873;SDS011;68250;43.514;1.494;2023-08-17T10:29:35;6.57;;;3.83;;
78873;SDS011;68250;43.514;1.494;2023-08-17T10:32:01;5.47;;;3.43;;
78873;SDS011;68250;43.514;1.494;2023-08-17T10:34:27;6.13;;;3.63;;
78873;SDS011;68250;43.514;1.494;2023-08-17T10:36:53;6.20;;;3.78;;
78873;SDS011;68250;43.514;1.494;2023-08-17T10:39:26;7.22;;;3.70;;
78873;SDS011;68250;43.514;1.494;2023-08-17T10:41:53;6.20;;;3.67;;
78873;SDS011;68250;43.514;1.494;2023-08-17T10:49:56;6.53;;;3.38;;
78873;SDS011;68250;43.514;1.494;2023-08-17T10:52:26;7.40;;;3.90;;
78873;SDS011;68250;43.514;1.494;2023-08-17T10:54:56;8.23;;;4.10;;
78873;SDS011;68250;43.514;1.494;2023-08-17T10:57:28;5.95;;;3.72;;
78873;SDS011;68250;43.514;1.494;2023-08-17T11:00:07;7.18;;;4.30;;
78873;SDS011;68250;43.514;1.494;2023-08-17T11:02:56;6.55;;;4.43;;
78873;SDS011;68250;43.514;1.494;2023-08-17T11:05:40;8.85;;;4.38;;
78873;SDS011;68250;43.514;1.494;2023-08-17T11:08:09;8.33;;;4.40;;
78873;SDS011;68250;43.514;1.494;2023-08-17T11:10:36;5.53;;;4.00;;
78873;SDS011;68250;43.514;1.494;2023-08-17T11:13:03;7.07;;;4.25;;
78873;SDS011;68250;43.514;1.494;2023-08-17T11:15:41;8.95;;;4.40;;
78873;SDS011;68250;43.514;1.494;2023-08-17T11:18:08;7.67;;;4.73;;
78873;SDS011;68250;43.514;1.494;2023-08-17T11:20:34;7.65;;;4.30;;
78873;SDS011;68250;43.514;1.494;2023-08-17T11:23:00;7.53;;;4.30;;
78873;SDS011;68250;43.514;1.494;2023-08-17T11:25:26;6.13;;;4.50;;
78873;SDS011;68250;43.514;1.494;2023-08-17T11:27:52;12.32;;;5.20;;
78873;SDS011;68250;43.514;1.494;2023-08-17T11:30:20;7.10;;;4.53;;
78873;SDS011;68250;43.514;1.494;2023-08-17T11:32:46;9.35;;;5.25;;
78873;SDS011;68250;43.514;1.494;2023-08-17T11:35:11;9.93;;;4.57;;
78873;SDS011;68250;43.514;1.494;2023-08-17T11:37:37;8.77;;;4.90;;
78873;SDS011;68250;43.514;1.494;2023-08-17T11:40:03;7.50;;;4.70;;
78873;SDS011;68250;43.514;1.494;2023-08-17T11:42:29;9.05;;;4.10;;
78873;SDS011;68250;43.514;1.494;2023-08-17T11:44:55;6.93;;;3.85;;
78873;SDS011;68250;43.514;1.494;2023-08-17T11:47:21;8.38;;;4.05;;
78873;SDS011;68250;43.514;1.494;2023-08-17T11:49:50;8.73;;;4.43;;
78873;SDS011;68250;43.514;1.494;2023-08-17T11:52:15;8.13;;;4.20;;
78873;SDS011;68250;43.514;1.494;2023-08-17T11:54:41;6.73;;;3.90;;
78873;SDS011;68250;43.514;1.494;2023-08-17T11:57:07;9.50;;;4.03;;
78873;SDS011;68250;43.514;1.494;2023-08-17T11:59:32;9.80;;;3.87;;
78873;SDS011;68250;43.514;1.494;2023-08-17T12:01:58;7.72;;;3.83;;
78873;SDS011;68250;43.514;1.494;2023-08-17T12:04:24;7.88;;;3.75;;
78873;SDS011;68250;43.514;1.494;2023-08-17T12:06:50;8.47;;;4.10;;
78873;SDS011;68250;43.514;1.494;2023-08-17T12:09:16;6.72;;;3.50;;
78873;SDS011;68250;43.514;1.494;2023-08-17T12:11:44;8.68;;;3.67;;
78873;SDS011;68250;43.514;1.494;2023-08-17T12:14:10;8.97;;;3.60;;
78873;SDS011;68250;43.514;1.494;2023-08-17T12:16:44;6.63;;;3.80;;
78873;SDS011;68250;43.514;1.494;2023-08-17T12:19:12;8.70;;;4.30;;
78873;SDS011;68250;43.514;1.494;2023-08-17T12:21:37;8.13;;;4.10;;
78873;SDS011;68250;43.514;1.494;2023-08-17T12:24:06;6.55;;;3.92;;
78873;SDS011;68250;43.514;1.494;2023-08-17T12:26:32;5.30;;;3.60;;
78873;SDS011;68250;43.514;1.494;2023-08-17T12:28:59;7.55;;;3.50;;
78873;SDS011;68250;43.514;1.494;2023-08-17T12:31:25;5.23;;;3.40;;
78873;SDS011;68250;43.514;1.494;2023-08-17T12:33:50;5.60;;;3.50;;
78873;SDS011;68250;43.514;1.494;2023-08-17T12:36:16;5.50;;;2.90;;
78873;SDS011;68250;43.514;1.494;2023-08-17T12:38:43;7.50;;;3.55;;
78873;SDS011;68250;43.514;1.494;2023-08-17T12:41:10;6.50;;;3.83;;
78873;SDS011;68250;43.514;1.494;2023-08-17T12:43:36;6.10;;;3.83;;
78873;SDS011;68250;43.514;1.494;2023-08-17T12:46:02;6.15;;;3.58;;
78873;SDS011;68250;43.514;1.494;2023-08-17T12:48:28;7.07;;;3.35;;
78873;SDS011;68250;43.514;1.494;2023-08-17T12:50:53;6.50;;;3.63;;
78873;SDS011;68250;43.514;1.494;2023-08-17T12:53:19;6.67;;;3.40;;
78873;SDS011;68250;43.514;1.494;2023-08-17T12:55:45;5.53;;;3.60;;
78873;SDS011;68250;43.514;1.494;2023-08-17T12:58:10;6.37;;;3.37;;
78873;SDS011;68250;43.514;1.494;2023-08-17T13:00:36;7.78;;;3.53;;
78873;SDS011;68250;43.514;1.494;2023-08-17T13:03:02;6.53;;;3.47;;
78873;SDS011;68250;43.514;1.494;2023-08-17T13:05:27;6.50;;;3.30;;
78873;SDS011;68250;43.514;1.494;2023-08-17T13:07:53;6.30;;;3.60;;
78873;SDS011;68250;43.514;1.494;2023-08-17T13:10:18;5.53;;;3.87;;
78873;SDS011;68250;43.514;1.494;2023-08-17T13:12:44;8.88;;;3.83;;
78873;SDS011;68250;43.514;1.494;2023-08-17T13:15:12;6.72;;;3.88;;
78873;SDS011;68250;43.514;1.494;2023-08-17T13:17:38;5.90;;;3.87;;
78873;SDS011;68250;43.514;1.494;2023-08-17T13:20:03;7.00;;;3.90;;
78873;SDS011;68250;43.514;1.494;2023-08-17T13:22:31;8.53;;;4.07;;
78873;SDS011;68250;43.514;1.494;2023-08-17T13:24:57;8.45;;;4.05;;
78873;SDS011;68250;43.514;1.494;2023-08-17T13:27:22;6.47;;;4.00;;
78873;SDS011;68250;43.514;1.494;2023-08-17T13:29:48;7.90;;;3.90;;
78873;SDS011;68250;43.514;1.494;2023-08-17T13:32:14;9.13;;;4.05;;
78873;SDS011;68250;43.514;1.494;2023-08-17T13:34:40;7.43;;;4.37;;
78873;SDS011;68250;43.514;1.494;2023-08-17T13:37:05;6.20;;;4.25;;
78873;SDS011;68250;43.514;1.494;2023-08-17T13:39:31;6.77;;;4.03;;
78873;SDS011;68250;43.514;1.494;2023-08-17T13:41:57;7.05;;;4.00;;
78873;SDS011;68250;43.514;1.494;2023-08-17T13:44:23;6.30;;;4.20;;
78873;SDS011;68250;43.514;1.494;2023-08-17T13:46:48;6.63;;;4.03;;
78873;SDS011;68250;43.514;1.494;2023-08-17T13:49:14;7.75;;;4.65;;
78873;SDS011;68250;43.514;1.494;2023-08-17T13:51:40;6.33;;;4.03;;
78873;SDS011;68250;43.514;1.494;2023-08-17T13:54:05;6.97;;;3.93;;
78873;SDS011;68250;43.514;1.494;2023-08-17T13:56:31;6.65;;;4.03;;
78873;SDS011;68250;43.514;1.494;2023-08-17T13:58:56;8.43;;;4.37;;
78873;SDS011;68250;43.514;1.494;2023-08-17T14:01:22;6.75;;;4.63;;
78873;SDS011;68250;43.514;1.494;2023-08-17T14:03:48;7.10;;;4.00;;
78873;SDS011;68250;43.514;1.494;2023-08-17T14:06:13;6.67;;;4.03;;
78873;SDS011;68250;43.514;1.494;2023-08-17T14:08:39;9.60;;;3.97;;
78873;SDS011;68250;43.514;1.494;2023-08-17T14:11:04;7.65;;;3.90;;
78873;SDS011;68250;43.514;1.494;2023-08-17T14:13:31;10.80;;;4.30;;
78873;SDS011;68250;43.514;1.494;2023-08-17T14:15:57;9.73;;;4.22;;
78873;SDS011;68250;43.514;1.494;2023-08-17T14:18:24;7.85;;;4.38;;
78873;SDS011;68250;43.514;1.494;2023-08-17T14:20:50;7.50;;;4.50;;
78873;SDS011;68250;43.514;1.494;2023-08-17T14:23:15;7.22;;;3.90;;
78873;SDS011;68250;43.514;1.494;2023-08-17T14:25:41;8.40;;;3.70;;
78873;SDS011;68250;43.514;1.494;2023-08-17T14:28:07;6.40;;;3.97;;
78873;SDS011;68250;43.514;1.494;2023-08-17T14:30:33;8.45;;;3.70;;
78873;SDS011;68250;43.514;1.494;2023-08-17T14:32:59;6.50;;;3.78;;
78873;SDS011;68250;43.514;1.494;2023-08-17T14:35:26;6.90;;;4.03;;
78873;SDS011;68250;43.514;1.494;2023-08-17T14:37:52;7.03;;;4.40;;
78873;SDS011;68250;43.514;1.494;2023-08-17T14:40:17;8.85;;;4.30;;
78873;SDS011;68250;43.514;1.494;2023-08-17T14:42:43;6.83;;;4.00;;
78873;SDS011;68250;43.514;1.494;2023-08-17T14:45:10;6.43;;;4.25;;
78873;SDS011;68250;43.514;1.494;2023-08-17T14:47:36;6.07;;;4.05;;
78873;SDS011;68250;43.514;1.494;2023-08-17T14:50:02;8.53;;;4.30;;
78873;SDS011;68250;43.514;1.494;2023-08-17T14:52:27;7.97;;;4.50;;